Chicago, IL (60290)

11:32 AM CST on February 13, 2016 (GMT -0600)
West Loop - Old St. Pats | | Change Station
CLOSE
Current Station
Personal Weather Station
Location: Chicago, IL
Elevation: 548 ft
Nearby Weather Stations

Elev 548 ft 41.88 °N, 87.64 °W | Updated 1 second ago

Clear
Clear
16.5 °F
Feels Like 16 °F
N
1.0
Wind Variable Wind from SSW
Gusts 2.0 mph

Today
High -- | Low -- °F
--% Chance of Precip.
Yesterday
High -- | Low -- °F
Precip. -- in
Pressure 30.67 in
Visibility 10.0 miles
Clouds Few 2500 ft
Few 20000 ft
Windchill 16 °F
Dew Point -4 °F
Humidity 39%
Rainfall 0.00 in
Snow Depth Not available.
6:49 AM 5:20 PM
Waxing Crescent, 32% visible
METAR KMDW 131653Z 32008KT 10SM FEW025 FEW200 M11/M23 A3060 RMK AO2 SLP385 T11111228
Pressure 30.67 in
Visibility 10.0 miles
Clouds Few 2500 ft
Few 20000 ft
Windchill 16 °F
Dew Point -4 °F
Humidity 39%
Rainfall 0.00 in
Snow Depth Not available.
6:49 AM 5:20 PM
Waxing Crescent, 32% visible
METAR KMDW 131653Z 32008KT 10SM FEW025 FEW200 M11/M23 A3060 RMK AO2 SLP385 T11111228

10-Day Weather Forecast

Almanac

Astronomy

Feb. 13, 2016 Rise Set
Actual Time
Civil Twilight
Nautical Twilight
Astronomical Twilight
Moon
Length of Visible Light
Length of Day
Tomorrow will be .
, % of the Moon is Illuminated

Today's Extremes

State Highs State Lows

Community

WunderPhotos

Upload Photos

1,892,622 photos uploaded!

WunderBlog® & News

Nearby

Air Quality

  Air Quality AQ Index Pollutant
Not available.

Snow Depth

Station Depth Elevation

Earthquake Activity

City Distance Mag. Time & Date
Minimum magnitude displayed is 2.5.

Coastal Water Temperatures

Place Temperature

Stations

Nearby Weather Stations

Station Location Temp. Windchill Dew Point Humidity Wind Precip. Elev Updated Type
                   

Watches & Warnings

There are currently no watches in effect.